sensor_id;sensor_type;location;lat;lon;timestamp;pressure;altitude;pressure_sealevel;temperature;humidity
44872;BME280;30602;51.060;17.226;2023-08-08T00:01:42;101112.65;;;14.83;77.22
44872;BME280;30602;51.060;17.226;2023-08-08T00:05:19;101110.00;;;14.80;77.43
44872;BME280;30602;51.060;17.226;2023-08-08T00:09:16;101107.64;;;14.73;77.32
44872;BME280;30602;51.060;17.226;2023-08-08T00:12:39;101107.84;;;14.71;77.10
44872;BME280;30602;51.060;17.226;2023-08-08T00:16:15;101116.02;;;14.71;76.71
44872;BME280;30602;51.060;17.226;2023-08-08T00:20:01;101119.59;;;14.87;76.54
44872;BME280;30602;51.060;17.226;2023-08-08T00:24:13;101120.04;;;14.95;76.34
44872;BME280;30602;51.060;17.226;2023-08-08T00:27:36;101121.95;;;15.03;76.32
44872;BME280;30602;51.060;17.226;2023-08-08T00:31:27;101122.52;;;14.90;76.04
44872;BME280;30602;51.060;17.226;2023-08-08T00:35:03;101121.39;;;14.88;75.92
44872;BME280;30602;51.060;17.226;2023-08-08T00:38:39;101124.27;;;14.84;76.73
44872;BME280;30602;51.060;17.226;2023-08-08T00:42:05;101122.57;;;14.83;76.94
44872;BME280;30602;51.060;17.226;2023-08-08T00:45:29;101120.73;;;14.80;75.56
44872;BME280;30602;51.060;17.226;2023-08-08T00:54:02;101127.73;;;14.95;75.83
44872;BME280;30602;51.060;17.226;2023-08-08T00:57:45;101132.99;;;14.86;76.00
44872;BME280;30602;51.060;17.226;2023-08-08T01:01:33;101134.73;;;14.82;76.22
44872;BME280;30602;51.060;17.226;2023-08-08T01:05:15;101132.98;;;14.70;76.68
44872;BME280;30602;51.060;17.226;2023-08-08T01:09:18;101133.54;;;14.71;76.97
44872;BME280;30602;51.060;17.226;2023-08-08T01:13:20;101134.69;;;14.69;76.97
44872;BME280;30602;51.060;17.226;2023-08-08T01:17:30;101140.40;;;14.65;76.49
44872;BME280;30602;51.060;17.226;2023-08-08T01:20:53;101141.87;;;14.76;76.40
44872;BME280;30602;51.060;17.226;2023-08-08T01:24:23;101142.05;;;14.62;76.84
44872;BME280;30602;51.060;17.226;2023-08-08T01:28:11;101142.61;;;14.56;77.35
44872;BME280;30602;51.060;17.226;2023-08-08T01:31:54;101142.48;;;14.43;77.35
44872;BME280;30602;51.060;17.226;2023-08-08T01:35:39;101139.30;;;14.36;77.88
44872;BME280;30602;51.060;17.226;2023-08-08T01:39:49;101137.67;;;14.20;79.08
44872;BME280;30602;51.060;17.226;2023-08-08T01:43:45;101137.38;;;14.22;79.00
44872;BME280;30602;51.060;17.226;2023-08-08T01:47:20;101133.33;;;14.17;79.18
44872;BME280;30602;51.060;17.226;2023-08-08T01:50:59;101143.07;;;13.98;79.85
44872;BME280;30602;51.060;17.226;2023-08-08T01:54:27;101139.82;;;13.95;80.53
44872;BME280;30602;51.060;17.226;2023-08-08T01:58:23;101136.66;;;13.90;80.49
44872;BME280;30602;51.060;17.226;2023-08-08T02:02:29;101134.25;;;13.80;80.44
44872;BME280;30602;51.060;17.226;2023-08-08T02:06:14;101134.77;;;13.76;80.81
44872;BME280;30602;51.060;17.226;2023-08-08T02:13:29;101135.47;;;13.76;80.77
44872;BME280;30602;51.060;17.226;2023-08-08T02:17:12;101137.94;;;13.65;80.68
44872;BME280;30602;51.060;17.226;2023-08-08T02:20:36;101138.45;;;13.60;81.13
44872;BME280;30602;51.060;17.226;2023-08-08T02:24:11;101141.34;;;13.59;81.32
44872;BME280;30602;51.060;17.226;2023-08-08T02:28:06;101135.70;;;13.47;81.01
44872;BME280;30602;51.060;17.226;2023-08-08T02:31:48;101127.59;;;13.31;81.43
44872;BME280;30602;51.060;17.226;2023-08-08T02:35:28;101142.29;;;13.38;81.49
44872;BME280;30602;51.060;17.226;2023-08-08T02:43:16;101148.19;;;13.36;81.51
44872;BME280;30602;51.060;17.226;2023-08-08T02:47:12;101147.55;;;13.29;81.80
44872;BME280;30602;51.060;17.226;2023-08-08T02:50:58;101148.23;;;13.23;81.45
44872;BME280;30602;51.060;17.226;2023-08-08T02:54:17;101146.44;;;13.14;82.04
44872;BME280;30602;51.060;17.226;2023-08-08T02:58:00;101145.98;;;13.14;81.96
44872;BME280;30602;51.060;17.226;2023-08-08T03:01:57;101146.93;;;13.15;81.90
44872;BME280;30602;51.060;17.226;2023-08-08T03:05:19;101159.16;;;13.08;81.71
44872;BME280;30602;51.060;17.226;2023-08-08T03:08:54;101158.41;;;13.05;81.96
44872;BME280;30602;51.060;17.226;2023-08-08T03:13:00;101161.91;;;12.95;82.19
44872;BME280;30602;51.060;17.226;2023-08-08T03:16:57;101163.94;;;12.89;81.88
44872;BME280;30602;51.060;17.226;2023-08-08T03:20:20;101167.34;;;12.88;81.74
44872;BME280;30602;51.060;17.226;2023-08-08T03:24:26;101169.00;;;12.85;81.78
44872;BME280;30602;51.060;17.226;2023-08-08T03:28:11;101176.27;;;12.88;82.25
44872;BME280;30602;51.060;17.226;2023-08-08T03:31:34;101176.73;;;12.98;81.78
44872;BME280;30602;51.060;17.226;2023-08-08T03:35:01;101179.59;;;12.92;81.90
44872;BME280;30602;51.060;17.226;2023-08-08T03:38:51;101181.20;;;12.89;81.67
44872;BME280;30602;51.060;17.226;2023-08-08T03:42:16;101173.67;;;12.79;81.34
44872;BME280;30602;51.060;17.226;2023-08-08T03:45:56;101191.77;;;12.88;81.83
44872;BME280;30602;51.060;17.226;2023-08-08T03:49:36;101194.58;;;12.88;81.52
44872;BME280;30602;51.060;17.226;2023-08-08T03:53:28;101193.80;;;12.93;81.65
44872;BME280;30602;51.060;17.226;2023-08-08T03:57:12;101201.27;;;12.90;82.07
44872;BME280;30602;51.060;17.226;2023-08-08T04:00:53;101201.27;;;13.00;82.02
44872;BME280;30602;51.060;17.226;2023-08-08T04:04:37;101209.41;;;12.96;82.65
44872;BME280;30602;51.060;17.226;2023-08-08T04:08:19;101209.40;;;13.01;82.24
44872;BME280;30602;51.060;17.226;2023-08-08T04:12:14;101213.44;;;13.02;82.53
44872;BME280;30602;51.060;17.226;2023-08-08T04:15:56;101216.57;;;13.07;82.92
44872;BME280;30602;51.060;17.226;2023-08-08T04:19:40;101212.81;;;13.09;81.94
44872;BME280;30602;51.060;17.226;2023-08-08T04:23:04;101216.45;;;13.20;82.47
44872;BME280;30602;51.060;17.226;2023-08-08T04:27:08;101221.65;;;13.25;82.37
44872;BME280;30602;51.060;17.226;2023-08-08T04:31:04;101233.58;;;13.36;82.01
44872;BME280;30602;51.060;17.226;2023-08-08T04:35:08;101233.56;;;13.42;81.26
44872;BME280;30602;51.060;17.226;2023-08-08T04:38:31;101241.48;;;13.53;80.90
44872;BME280;30602;51.060;17.226;2023-08-08T04:42:14;101246.68;;;13.71;81.06
44872;BME280;30602;51.060;17.226;2023-08-08T04:45:58;101253.06;;;13.74;80.85
44872;BME280;30602;51.060;17.226;2023-08-08T04:49:55;101256.42;;;13.98;78.93
44872;BME280;30602;51.060;17.226;2023-08-08T04:57:32;101254.56;;;14.24;76.79
44872;BME280;30602;51.060;17.226;2023-08-08T05:01:38;101258.38;;;14.37;77.07
44872;BME280;30602;51.060;17.226;2023-08-08T05:05:22;101261.65;;;14.44;75.74
44872;BME280;30602;51.060;17.226;2023-08-08T05:08:45;101261.13;;;14.40;76.25
44872;BME280;30602;51.060;17.226;2023-08-08T05:12:21;101266.20;;;14.38;76.60
44872;BME280;30602;51.060;17.226;2023-08-08T05:16:14;101272.43;;;14.39;76.99
44872;BME280;30602;51.060;17.226;2023-08-08T05:19:59;101270.59;;;14.54;77.24
44872;BME280;30602;51.060;17.226;2023-08-08T05:24:05;101277.11;;;14.84;77.38
44872;BME280;30602;51.060;17.226;2023-08-08T05:27:30;101275.05;;;14.94;76.72
44872;BME280;30602;51.060;17.226;2023-08-08T05:30:53;101273.84;;;15.00;76.13
44872;BME280;30602;51.060;17.226;2023-08-08T05:34:59;101271.95;;;15.06;75.17
44872;BME280;30602;51.060;17.226;2023-08-08T05:38:26;101270.05;;;15.34;73.85
44872;BME280;30602;51.060;17.226;2023-08-08T05:42:14;101266.63;;;15.37;74.16
44872;BME280;30602;51.060;17.226;2023-08-08T05:46:19;101270.48;;;15.40;74.64
44872;BME280;30602;51.060;17.226;2023-08-08T05:49:42;101273.84;;;15.34;75.34
44872;BME280;30602;51.060;17.226;2023-08-08T05:53:25;101273.94;;;15.32;76.18
44872;BME280;30602;51.060;17.226;2023-08-08T05:57:26;101275.52;;;15.33;76.48
44872;BME280;30602;51.060;17.226;2023-08-08T06:00:50;101279.02;;;15.26;76.02
44872;BME280;30602;51.060;17.226;2023-08-08T06:04:11;101278.98;;;15.31;76.10
44872;BME280;30602;51.060;17.226;2023-08-08T06:08:28;101277.22;;;15.49;73.50
44872;BME280;30602;51.060;17.226;2023-08-08T06:11:48;101272.51;;;15.82;73.23
44872;BME280;30602;51.060;17.226;2023-08-08T06:19:06;101266.38;;;16.10;73.26
44872;BME280;30602;51.060;17.226;2023-08-08T06:23:09;101272.31;;;16.09;72.83
44872;BME280;30602;51.060;17.226;2023-08-08T06:26:37;101273.32;;;16.24;72.87
44872;BME280;30602;51.060;17.226;2023-08-08T06:29:58;101269.09;;;16.28;72.95
44872;BME280;30602;51.060;17.226;2023-08-08T06:33:42;101266.99;;;16.47;71.92
44872;BME280;30602;51.060;17.226;2023-08-08T06:37:29;101263.51;;;16.60;71.90
44872;BME280;30602;51.060;17.226;2023-08-08T06:45:22;101264.69;;;16.91;68.49
44872;BME280;30602;51.060;17.226;2023-08-08T06:49:18;101260.88;;;16.97;67.07
44872;BME280;30602;51.060;17.226;2023-08-08T06:53:03;101264.65;;;17.05;66.68
44872;BME280;30602;51.060;17.226;2023-08-08T06:56:58;101265.09;;;17.30;64.77
44872;BME280;30602;51.060;17.226;2023-08-08T07:01:06;101268.74;;;17.52;64.26
44872;BME280;30602;51.060;17.226;2023-08-08T07:05:04;101260.75;;;17.45;61.96
44872;BME280;30602;51.060;17.226;2023-08-08T07:08:37;101256.70;;;17.36;60.98
44872;BME280;30602;51.060;17.226;2023-08-08T07:12:14;101250.57;;;17.37;62.67
44872;BME280;30602;51.060;17.226;2023-08-08T07:15:47;101256.60;;;17.56;60.35
44872;BME280;30602;51.060;17.226;2023-08-08T07:19:08;101256.28;;;17.53;61.71
44872;BME280;30602;51.060;17.226;2023-08-08T07:22:34;101251.90;;;17.48;63.64
44872;BME280;30602;51.060;17.226;2023-08-08T07:25:57;101247.80;;;17.51;63.60
44872;BME280;30602;51.060;17.226;2023-08-08T07:29:21;101247.70;;;17.46;62.96
44872;BME280;30602;51.060;17.226;2023-08-08T07:33:06;101246.77;;;17.54;61.09
44872;BME280;30602;51.060;17.226;2023-08-08T07:36:49;101241.56;;;17.54;62.60
44872;BME280;30602;51.060;17.226;2023-08-08T07:40:18;101247.99;;;17.56;60.02
44872;BME280;30602;51.060;17.226;2023-08-08T07:43:43;101249.80;;;17.51;60.64
44872;BME280;30602;51.060;17.226;2023-08-08T07:47:51;101252.64;;;17.46;61.69
44872;BME280;30602;51.060;17.226;2023-08-08T07:51:24;101252.95;;;17.69;62.32
44872;BME280;30602;51.060;17.226;2023-08-08T07:55:17;101261.03;;;17.74;62.01
44872;BME280;30602;51.060;17.226;2023-08-08T07:59:03;101259.75;;;17.58;57.67
44872;BME280;30602;51.060;17.226;2023-08-08T08:06:49;101259.86;;;17.27;56.27
44872;BME280;30602;51.060;17.226;2023-08-08T08:10:50;101254.90;;;17.42;56.88
44872;BME280;30602;51.060;17.226;2023-08-08T08:14:13;101253.67;;;17.72;56.24
44872;BME280;30602;51.060;17.226;2023-08-08T08:18:08;101247.34;;;18.01;55.82
44872;BME280;30602;51.060;17.226;2023-08-08T08:22:15;101243.66;;;18.11;53.28
44872;BME280;30602;51.060;17.226;2023-08-08T08:26:13;101237.25;;;18.68;53.60
44872;BME280;30602;51.060;17.226;2023-08-08T08:29:44;101233.28;;;18.93;51.17
44872;BME280;30602;51.060;17.226;2023-08-08T08:33:57;101238.34;;;18.54;49.66
44872;BME280;30602;51.060;17.226;2023-08-08T08:41:48;101220.01;;;18.59;50.62
44872;BME280;30602;51.060;17.226;2023-08-08T08:45:51;101225.75;;;18.77;52.18
44872;BME280;30602;51.060;17.226;2023-08-08T08:53:38;101237.05;;;18.81;49.23
44872;BME280;30602;51.060;17.226;2023-08-08T08:58:02;101235.77;;;18.54;50.55
44872;BME280;30602;51.060;17.226;2023-08-08T09:01:54;101238.52;;;18.24;48.38
44872;BME280;30602;51.060;17.226;2023-08-08T09:05:19;101244.45;;;18.03;51.30
44872;BME280;30602;51.060;17.226;2023-08-08T09:09:09;101243.30;;;17.99;50.73
44872;BME280;30602;51.060;17.226;2023-08-08T09:13:27;101233.60;;;18.47;53.00
44872;BME280;30602;51.060;17.226;2023-08-08T09:16:54;101229.70;;;18.69;51.43
44872;BME280;30602;51.060;17.226;2023-08-08T09:20:48;101238.52;;;18.77;49.27
44872;BME280;30602;51.060;17.226;2023-08-08T09:24:11;101237.55;;;19.06;49.81
44872;BME280;30602;51.060;17.226;2023-08-08T09:27:36;101225.38;;;19.22;49.15
44872;BME280;30602;51.060;17.226;2023-08-08T09:31:56;101236.95;;;19.05;49.45
44872;BME280;30602;51.060;17.226;2023-08-08T09:36:16;101242.00;;;18.78;47.51
44872;BME280;30602;51.060;17.226;2023-08-08T09:39:43;101243.37;;;18.79;48.99
44872;BME280;30602;51.060;17.226;2023-08-08T09:43:38;101240.77;;;18.64;48.13
44872;BME280;30602;51.060;17.226;2023-08-08T09:47:02;101245.53;;;18.64;50.42
44872;BME280;30602;51.060;17.226;2023-08-08T09:51:16;101244.94;;;18.77;49.76
44872;BME280;30602;51.060;17.226;2023-08-08T09:55:01;101243.91;;;19.02;48.97
44872;BME280;30602;51.060;17.226;2023-08-08T09:58:57;101241.77;;;19.03;48.15
44872;BME280;30602;51.060;17.226;2023-08-08T10:03:09;101235.57;;;19.29;48.34
44872;BME280;30602;51.060;17.226;2023-08-08T10:07:05;101230.10;;;19.41;51.65
44872;BME280;30602;51.060;17.226;2023-08-08T10:10:29;101234.55;;;19.14;49.62
44872;BME280;30602;51.060;17.226;2023-08-08T10:14:35;101238.41;;;19.11;52.36
44872;BME280;30602;51.060;17.226;2023-08-08T10:18:22;101233.22;;;19.04;51.15
44872;BME280;30602;51.060;17.226;2023-08-08T10:22:00;101240.82;;;18.94;52.90
44872;BME280;30602;51.060;17.226;2023-08-08T10:25:53;101239.71;;;18.95;51.15
44872;BME280;30602;51.060;17.226;2023-08-08T10:29:39;101236.73;;;18.82;51.76
44872;BME280;30602;51.060;17.226;2023-08-08T10:33:45;101228.23;;;18.74;55.14
44872;BME280;30602;51.060;17.226;2023-08-08T10:41:03;101238.19;;;18.99;52.31
44872;BME280;30602;51.060;17.226;2023-08-08T10:44:26;101236.63;;;19.11;53.85
44872;BME280;30602;51.060;17.226;2023-08-08T10:48:10;101231.87;;;19.22;54.50
44872;BME280;30602;51.060;17.226;2023-08-08T10:51:39;101237.69;;;19.18;55.21
44872;BME280;30602;51.060;17.226;2023-08-08T10:55:31;101217.30;;;19.22;53.52
44872;BME280;30602;51.060;17.226;2023-08-08T11:03:50;101221.25;;;19.83;53.39
44872;BME280;30602;51.060;17.226;2023-08-08T11:07:33;101219.78;;;19.74;49.01
44872;BME280;30602;51.060;17.226;2023-08-08T11:11:26;101219.80;;;19.65;50.79
44872;BME280;30602;51.060;17.226;2023-08-08T11:15:10;101220.68;;;19.68;49.67
44872;BME280;30602;51.060;17.226;2023-08-08T11:18:35;101228.19;;;19.19;48.94
44872;BME280;30602;51.060;17.226;2023-08-08T11:21:59;101216.59;;;19.38;51.54
44872;BME280;30602;51.060;17.226;2023-08-08T11:25:46;101217.30;;;19.67;53.07
44872;BME280;30602;51.060;17.226;2023-08-08T11:29:08;101212.54;;;19.77;51.18
44872;BME280;30602;51.060;17.226;2023-08-08T11:32:34;101211.92;;;19.71;51.10
44872;BME280;30602;51.060;17.226;2023-08-08T11:36:55;101207.05;;;19.63;51.55
44872;BME280;30602;51.060;17.226;2023-08-08T11:40:32;101209.68;;;19.94;54.03
44872;BME280;30602;51.060;17.226;2023-08-08T11:43:57;101215.79;;;19.76;53.15
44872;BME280;30602;51.060;17.226;2023-08-08T11:47:54;101209.17;;;19.62;53.75
44872;BME280;30602;51.060;17.226;2023-08-08T11:51:43;101211.73;;;19.76;54.18
44872;BME280;30602;51.060;17.226;2023-08-08T11:55:30;101201.08;;;19.90;53.20
44872;BME280;30602;51.060;17.226;2023-08-08T11:59:22;101203.23;;;20.09;55.16
44872;BME280;30602;51.060;17.226;2023-08-08T12:03:35;101199.63;;;20.34;54.55
44872;BME280;30602;51.060;17.226;2023-08-08T12:07:19;101195.62;;;20.32;50.95
44872;BME280;30602;51.060;17.226;2023-08-08T12:10:49;101210.73;;;19.95;51.34
44872;BME280;30602;51.060;17.226;2023-08-08T12:14:21;101219.52;;;19.58;52.10
44872;BME280;30602;51.060;17.226;2023-08-08T12:17:50;101216.39;;;19.67;53.30
44872;BME280;30602;51.060;17.226;2023-08-08T12:21:34;101215.94;;;19.78;53.96
44872;BME280;30602;51.060;17.226;2023-08-08T12:24:59;101207.89;;;20.10;53.89
44872;BME280;30602;51.060;17.226;2023-08-08T12:28:45;101206.58;;;20.27;53.70
44872;BME280;30602;51.060;17.226;2023-08-08T12:32:25;101205.15;;;20.13;52.64
44872;BME280;30602;51.060;17.226;2023-08-08T12:36:10;101198.46;;;20.38;52.94
44872;BME280;30602;51.060;17.226;2023-08-08T12:39:34;101191.43;;;20.62;51.67
44872;BME280;30602;51.060;17.226;2023-08-08T12:43:32;101191.34;;;20.68;51.36
44872;BME280;30602;51.060;17.226;2023-08-08T12:47:17;101197.86;;;20.49;49.80
44872;BME280;30602;51.060;17.226;2023-08-08T12:50:42;101200.11;;;20.18;50.05
44872;BME280;30602;51.060;17.226;2023-08-08T12:54:19;101191.77;;;20.05;50.40
44872;BME280;30602;51.060;17.226;2023-08-08T12:58:17;101188.98;;;20.01;52.25
44872;BME280;30602;51.060;17.226;2023-08-08T13:01:56;101183.73;;;20.30;48.85
44872;BME280;30602;51.060;17.226;2023-08-08T13:06:03;101186.12;;;20.48;51.70
44872;BME280;30602;51.060;17.226;2023-08-08T13:13:26;101185.37;;;20.31;49.09
44872;BME280;30602;51.060;17.226;2023-08-08T13:17:10;101184.93;;;20.08;50.71
44872;BME280;30602;51.060;17.226;2023-08-08T13:24:39;101185.41;;;20.36;49.17
44872;BME280;30602;51.060;17.226;2023-08-08T13:28:30;101179.35;;;20.26;47.83
44872;BME280;30602;51.060;17.226;2023-08-08T13:32:49;101175.73;;;20.24;49.72
44872;BME280;30602;51.060;17.226;2023-08-08T13:36:24;101174.59;;;20.27;50.84
44872;BME280;30602;51.060;17.226;2023-08-08T13:40:09;101177.86;;;20.21;51.31
44872;BME280;30602;51.060;17.226;2023-08-08T13:44:05;101180.09;;;20.00;49.42
44872;BME280;30602;51.060;17.226;2023-08-08T13:47:52;101175.84;;;19.81;49.78
44872;BME280;30602;51.060;17.226;2023-08-08T13:51:13;101174.78;;;19.78;50.21
44872;BME280;30602;51.060;17.226;2023-08-08T13:55:16;101182.71;;;19.55;51.37
44872;BME280;30602;51.060;17.226;2023-08-08T13:59:14;101179.83;;;19.55;52.12
44872;BME280;30602;51.060;17.226;2023-08-08T14:02:50;101176.88;;;19.55;50.84
44872;BME280;30602;51.060;17.226;2023-08-08T14:06:56;101173.21;;;19.70;53.07
44872;BME280;30602;51.060;17.226;2023-08-08T14:10:54;101168.54;;;20.03;52.80
44872;BME280;30602;51.060;17.226;2023-08-08T14:14:27;101172.03;;;20.18;50.11
44872;BME280;30602;51.060;17.226;2023-08-08T14:18:04;101173.84;;;20.24;51.03
44872;BME280;30602;51.060;17.226;2023-08-08T14:21:38;101177.66;;;20.10;49.17
44872;BME280;30602;51.060;17.226;2023-08-08T14:25:22;101174.31;;;20.07;51.68
44872;BME280;30602;51.060;17.226;2023-08-08T14:29:04;101176.37;;;20.15;51.29
44872;BME280;30602;51.060;17.226;2023-08-08T14:32:37;101162.33;;;20.07;48.86
44872;BME280;30602;51.060;17.226;2023-08-08T14:36:01;101176.68;;;20.12;50.64
44872;BME280;30602;51.060;17.226;2023-08-08T14:40:00;101175.40;;;20.02;49.04
44872;BME280;30602;51.060;17.226;2023-08-08T14:43:45;101171.96;;;20.07;51.28
44872;BME280;30602;51.060;17.226;2023-08-08T14:47:27;101170.05;;;20.05;50.86
44872;BME280;30602;51.060;17.226;2023-08-08T14:51:44;101170.55;;;20.14;51.88
44872;BME280;30602;51.060;17.226;2023-08-08T14:55:22;101166.95;;;20.31;50.11
44872;BME280;30602;51.060;17.226;2023-08-08T14:58:56;101161.93;;;20.30;52.58
44872;BME280;30602;51.060;17.226;2023-08-08T15:02:20;101162.07;;;20.24;50.70
44872;BME280;30602;51.060;17.226;2023-08-08T15:06:03;101160.96;;;20.15;48.97
44872;BME280;30602;51.060;17.226;2023-08-08T15:10:30;101153.87;;;20.28;54.94
44872;BME280;30602;51.060;17.226;2023-08-08T15:14:27;101152.51;;;20.63;51.68
44872;BME280;30602;51.060;17.226;2023-08-08T15:17:49;101149.75;;;20.91;53.25
44872;BME280;30602;51.060;17.226;2023-08-08T15:21:40;101153.17;;;20.91;50.23
44872;BME280;30602;51.060;17.226;2023-08-08T15:25:46;101158.48;;;20.95;49.04
44872;BME280;30602;51.060;17.226;2023-08-08T15:29:28;101154.52;;;20.89;47.23
44872;BME280;30602;51.060;17.226;2023-08-08T15:32:53;101153.98;;;20.75;50.08
44872;BME280;30602;51.060;17.226;2023-08-08T15:36:13;101160.83;;;20.51;51.99
44872;BME280;30602;51.060;17.226;2023-08-08T15:39:46;101155.47;;;20.37;53.72
44872;BME280;30602;51.060;17.226;2023-08-08T15:43:09;101161.44;;;20.23;53.70
44872;BME280;30602;51.060;17.226;2023-08-08T15:46:33;101160.13;;;20.13;52.42
44872;BME280;30602;51.060;17.226;2023-08-08T15:49:57;101161.42;;;19.92;53.51
44872;BME280;30602;51.060;17.226;2023-08-08T15:53:24;101157.05;;;19.79;54.87
44872;BME280;30602;51.060;17.226;2023-08-08T15:57:11;101157.29;;;19.57;57.05
44872;BME280;30602;51.060;17.226;2023-08-08T16:00:56;101155.59;;;19.52;58.03
44872;BME280;30602;51.060;17.226;2023-08-08T16:04:22;101155.54;;;19.54;57.32
44872;BME280;30602;51.060;17.226;2023-08-08T16:08:04;101150.80;;;19.63;56.96
44872;BME280;30602;51.060;17.226;2023-08-08T16:11:32;101147.31;;;19.62;58.82
44872;BME280;30602;51.060;17.226;2023-08-08T16:15:13;101148.09;;;19.61;58.18
44872;BME280;30602;51.060;17.226;2023-08-08T16:19:10;101145.55;;;19.64;60.37
44872;BME280;30602;51.060;17.226;2023-08-08T16:22:55;101147.22;;;19.58;60.57
44872;BME280;30602;51.060;17.226;2023-08-08T16:26:43;101151.46;;;19.42;58.72
44872;BME280;30602;51.060;17.226;2023-08-08T16:31:22;101145.16;;;19.40;60.09
44872;BME280;30602;51.060;17.226;2023-08-08T16:35:08;101144.82;;;19.50;59.28
44872;BME280;30602;51.060;17.226;2023-08-08T16:39:05;101137.64;;;19.55;58.83
44872;BME280;30602;51.060;17.226;2023-08-08T16:43:01;101137.95;;;19.47;59.18
44872;BME280;30602;51.060;17.226;2023-08-08T16:46:43;101141.02;;;19.45;57.84
44872;BME280;30602;51.060;17.226;2023-08-08T16:54:32;101139.54;;;19.33;56.67
44872;BME280;30602;51.060;17.226;2023-08-08T16:58:15;101142.84;;;19.12;59.95
44872;BME280;30602;51.060;17.226;2023-08-08T17:01:58;101147.63;;;19.09;59.27
44872;BME280;30602;51.060;17.226;2023-08-08T17:05:25;101150.28;;;18.97;59.19
44872;BME280;30602;51.060;17.226;2023-08-08T17:09:24;101156.40;;;18.84;61.11
44872;BME280;30602;51.060;17.226;2023-08-08T17:13:08;101160.27;;;18.62;63.14
44872;BME280;30602;51.060;17.226;2023-08-08T17:16:55;101156.81;;;18.53;63.26
44872;BME280;30602;51.060;17.226;2023-08-08T17:20:32;101156.97;;;18.39;64.67
44872;BME280;30602;51.060;17.226;2023-08-08T17:24:40;101158.11;;;18.31;62.86
44872;BME280;30602;51.060;17.226;2023-08-08T17:28:38;101155.92;;;18.13;63.98
44872;BME280;30602;51.060;17.226;2023-08-08T17:32:56;101157.53;;;18.10;63.94
44872;BME280;30602;51.060;17.226;2023-08-08T17:36:35;101163.66;;;17.97;63.98
44872;BME280;30602;51.060;17.226;2023-08-08T17:40:20;101160.53;;;17.69;65.59
44872;BME280;30602;51.060;17.226;2023-08-08T17:44:07;101164.07;;;17.65;66.91
44872;BME280;30602;51.060;17.226;2023-08-08T17:48:03;101166.81;;;17.62;66.95
44872;BME280;30602;51.060;17.226;2023-08-08T17:51:30;101162.17;;;17.35;67.94
44872;BME280;30602;51.060;17.226;2023-08-08T17:55:15;101164.41;;;17.23;69.05
44872;BME280;30602;51.060;17.226;2023-08-08T17:59:21;101166.81;;;17.18;69.82
44872;BME280;30602;51.060;17.226;2023-08-08T18:03:05;101168.60;;;16.97;70.66
44872;BME280;30602;51.060;17.226;2023-08-08T18:07:23;101171.29;;;16.91;71.76
44872;BME280;30602;51.060;17.226;2023-08-08T18:10:47;101169.16;;;16.79;73.68
44872;BME280;30602;51.060;17.226;2023-08-08T18:14:12;101175.27;;;16.73;74.87
44872;BME280;30602;51.060;17.226;2023-08-08T18:17:54;101182.95;;;16.71;75.56
44872;BME280;30602;51.060;17.226;2023-08-08T18:21:39;101207.34;;;16.71;74.59
44872;BME280;30602;51.060;17.226;2023-08-08T18:26:10;101215.17;;;16.78;73.93
44872;BME280;30602;51.060;17.226;2023-08-08T18:30:21;101217.02;;;16.86;74.40
44872;BME280;30602;51.060;17.226;2023-08-08T18:33:46;101230.56;;;16.83;72.73
44872;BME280;30602;51.060;17.226;2023-08-08T18:38:10;101229.98;;;16.81;74.80
44872;BME280;30602;51.060;17.226;2023-08-08T18:42:08;101220.48;;;16.82;76.10
44872;BME280;30602;51.060;17.226;2023-08-08T18:45:52;101220.44;;;16.72;76.19
44872;BME280;30602;51.060;17.226;2023-08-08T18:49:37;101224.66;;;16.60;76.66
44872;BME280;30602;51.060;17.226;2023-08-08T18:53:35;101226.19;;;16.59;78.20
44872;BME280;30602;51.060;17.226;2023-08-08T18:57:09;101231.25;;;16.50;78.54
44872;BME280;30602;51.060;17.226;2023-08-08T19:00:45;101227.41;;;16.30;79.47
44872;BME280;30602;51.060;17.226;2023-08-08T19:04:43;101241.77;;;16.42;81.22
44872;BME280;30602;51.060;17.226;2023-08-08T19:08:07;101250.03;;;16.39;80.81
44872;BME280;30602;51.060;17.226;2023-08-08T19:12:15;101275.67;;;16.40;80.26
44872;BME280;30602;51.060;17.226;2023-08-08T19:16:05;101291.16;;;16.55;70.17
44872;BME280;30602;51.060;17.226;2023-08-08T19:19:42;101302.99;;;16.40;73.43
44872;BME280;30602;51.060;17.226;2023-08-08T19:23:09;101310.11;;;15.79;82.17
44872;BME280;30602;51.060;17.226;2023-08-08T19:27:22;101310.02;;;15.37;84.81
44872;BME280;30602;51.060;17.226;2023-08-08T19:31:07;101285.09;;;15.23;88.64
44872;BME280;30602;51.060;17.226;2023-08-08T19:35:15;101264.39;;;15.23;91.89
44872;BME280;30602;51.060;17.226;2023-08-08T19:38:39;101247.45;;;15.18;92.86
44872;BME280;30602;51.060;17.226;2023-08-08T19:42:14;101240.42;;;14.95;94.61
44872;BME280;30602;51.060;17.226;2023-08-08T19:45:48;101240.88;;;14.84;94.60
44872;BME280;30602;51.060;17.226;2023-08-08T19:49:17;101254.16;;;14.67;95.13
44872;BME280;30602;51.060;17.226;2023-08-08T19:52:44;101252.18;;;14.69;96.72
44872;BME280;30602;51.060;17.226;2023-08-08T19:56:41;101263.69;;;14.56;97.71
44872;BME280;30602;51.060;17.226;2023-08-08T20:00:27;101266.00;;;14.65;98.36
44872;BME280;30602;51.060;17.226;2023-08-08T20:04:11;101263.95;;;14.70;99.77
44872;BME280;30602;51.060;17.226;2023-08-08T20:07:38;101264.23;;;14.65;100.00
44872;BME280;30602;51.060;17.226;2023-08-08T20:11:02;101260.84;;;14.68;100.00
44872;BME280;30602;51.060;17.226;2023-08-08T20:14:51;101263.82;;;14.68;99.96